Time;durP1;ratioP1;P1;durP2;ratioP2;P2;SDS_P1;SDS_P2;PMS_P1;PMS_P2;Temp;Humidity;BMP_temperature;BMP_pressure;BME280_temperature;BME280_humidity;BME280_pressure;Samples;Min_cycle;Max_cycle;Signal;HPM_P1;HPM_P2
2024/03/29 00:00:37;;;;;;;6.53;0.83;;;12.30;73.20;;;;;;5052685;28;20031;-65
2024/03/29 00:03:03;;;;;;;2.30;0.83;;;12.40;73.10;;;;;;5044192;28;20684;-66
2024/03/29 00:05:29;;;;;;;4.03;0.95;;;12.40;72.60;;;;;;5055214;28;20262;-65
2024/03/29 00:07:55;;;;;;;2.77;0.80;;;12.30;73.70;;;;;;5055923;28;20044;-65
2024/03/29 00:10:20;;;;;;;1.45;0.73;;;12.40;72.60;;;;;;5054622;28;20024;-65
2024/03/29 00:12:46;;;;;;;2.47;0.73;;;12.30;73.40;;;;;;5052839;28;20131;-65
2024/03/29 00:15:12;;;;;;;3.33;0.90;;;12.20;74.10;;;;;;5055340;28;20032;-65
2024/03/29 00:17:37;;;;;;;1.37;0.90;;;12.00;75.20;;;;;;5054146;28;20540;-65
2024/03/29 00:20:04;;;;;;;2.83;0.73;;;12.00;75.00;;;;;;5054231;28;20033;-67
2024/03/29 00:22:31;;;;;;;4.00;0.63;;;12.20;73.90;;;;;;5052955;28;20055;-65
2024/03/29 00:24:57;;;;;;;2.40;0.67;;;12.20;74.20;;;;;;5045873;28;20029;-65
2024/03/29 00:27:25;;;;;;;1.73;0.73;;;12.20;74.20;;;;;;5048161;28;20033;-65
2024/03/29 00:29:54;;;;;;;4.80;1.13;;;12.20;73.90;;;;;;5054866;28;20036;-65
2024/03/29 00:32:20;;;;;;;3.90;0.93;;;12.30;73.80;;;;;;5063733;28;20036;-65
2024/03/29 00:34:46;;;;;;;2.78;0.63;;;12.40;73.20;;;;;;5058483;28;20043;-65
2024/03/29 00:37:11;;;;;;;4.20;0.90;;;12.20;74.10;;;;;;5053469;28;20036;-68
2024/03/29 00:39:37;;;;;;;3.07;0.67;;;12.30;73.80;;;;;;5053719;28;20025;-64
2024/03/29 00:42:06;;;;;;;2.20;0.73;;;12.00;74.90;;;;;;5053740;28;20031;-64
2024/03/29 00:44:32;;;;;;;1.60;0.70;;;11.80;75.40;;;;;;5050831;28;20024;-65
2024/03/29 00:46:57;;;;;;;4.40;1.03;;;11.50;76.20;;;;;;5050524;28;20040;-64
2024/03/29 00:49:23;;;;;;;1.70;0.87;;;11.50;77.80;;;;;;5057074;28;20439;-66
2024/03/29 00:51:49;;;;;;;3.30;0.70;;;11.30;78.90;;;;;;5058584;28;20033;-64
2024/03/29 00:54:14;;;;;;;3.50;0.93;;;11.50;78.10;;;;;;5059253;28;20132;-70
2024/03/29 00:56:40;;;;;;;2.80;0.87;;;11.50;78.10;;;;;;5059501;28;20028;-67
2024/03/29 00:59:06;;;;;;;4.77;0.90;;;11.50;78.80;;;;;;5059648;28;20028;-69
2024/03/29 01:01:32;;;;;;;4.00;0.93;;;11.70;78.30;;;;;;5051305;28;20036;-65
2024/03/29 01:03:58;;;;;;;3.05;0.82;;;11.70;78.20;;;;;;5057962;28;20025;-67
2024/03/29 01:06:23;;;;;;;1.03;0.80;;;11.70;78.40;;;;;;5057834;28;20037;-66
2024/03/29 01:08:49;;;;;;;5.10;1.63;;;11.60;79.70;;;;;;5058858;28;20080;-68
2024/03/29 01:11:15;;;;;;;2.83;1.20;;;11.50;79.80;;;;;;5058726;28;20036;-64
2024/03/29 01:13:40;;;;;;;0.73;0.55;;;11.60;79.40;;;;;;5056926;28;20055;-64
2024/03/29 01:16:06;;;;;;;2.10;0.57;;;11.80;78.80;;;;;;5057341;28;20412;-65
2024/03/29 01:18:33;;;;;;;4.80;1.27;;;11.80;78.10;;;;;;5056612;28;20025;-65
2024/03/29 01:20:59;;;;;;;3.33;0.82;;;11.70;78.90;;;;;;5056619;28;20025;-64
2024/03/29 01:23:24;;;;;;;3.80;0.87;;;11.60;79.40;;;;;;5056705;28;20447;-67
2024/03/29 01:25:50;;;;;;;3.10;0.73;;;11.60;80.90;;;;;;5059042;28;20051;-65
2024/03/29 01:28:16;;;;;;;4.90;0.90;;;11.70;79.90;;;;;;5058976;28;20295;-69
2024/03/29 01:30:42;;;;;;;4.13;1.20;;;11.70;79.70;;;;;;5063513;28;20028;-65
2024/03/29 01:33:07;;;;;;;2.13;0.83;;;11.60;80.30;;;;;;5062269;28;20291;-68
2024/03/29 01:35:33;;;;;;;2.17;0.83;;;11.30;83.00;;;;;;5057170;28;20031;-65
2024/03/29 01:37:58;;;;;;;2.23;0.70;;;11.20;81.70;;;;;;5049914;28;20021;-67
2024/03/29 01:40:24;;;;;;;1.53;0.80;;;11.60;80.00;;;;;;5057360;28;20028;-68
2024/03/29 01:42:53;;;;;;;2.97;1.30;;;11.50;80.00;;;;;;5055894;28;20399;-65
2024/03/29 01:45:19;;;;;;;3.33;0.70;;;11.60;79.80;;;;;;5055725;28;20029;-65
2024/03/29 01:47:46;;;;;;;12.10;0.80;;;11.90;79.20;;;;;;5056140;28;20068;-65
2024/03/29 01:50:15;;;;;;;2.28;0.88;;;11.70;80.30;;;;;;5056011;28;20484;-64
2024/03/29 01:52:41;;;;;;;1.58;0.60;;;11.70;81.30;;;;;;5057013;28;20124;-65
2024/03/29 01:55:07;;;;;;;5.10;1.67;;;11.70;81.50;;;;;;5057612;28;20583;-65
2024/03/29 01:57:33;;;;;;;4.72;1.02;;;11.90;80.90;;;;;;5057306;28;20056;-64
2024/03/29 01:59:59;;;;;;;2.47;1.00;;;12.00;80.70;;;;;;5054514;28;20659;-64
2024/03/29 02:02:25;;;;;;;8.00;1.30;;;12.00;80.80;;;;;;5051151;28;20279;-68
2024/03/29 02:04:51;;;;;;;2.90;0.90;;;12.00;80.40;;;;;;5055221;28;20440;-68
2024/03/29 02:07:17;;;;;;;4.15;0.93;;;12.20;80.50;;;;;;5057331;28;20021;-69
2024/03/29 02:09:42;;;;;;;6.03;0.98;;;12.10;80.40;;;;;;5057526;28;20047;-66
2024/03/29 02:12:08;;;;;;;2.40;0.87;;;11.90;82.50;;;;;;5055418;28;20381;-67
2024/03/29 02:14:34;;;;;;;5.23;0.83;;;12.10;81.10;;;;;;5053355;28;20111;-68
2024/03/29 02:16:59;;;;;;;5.20;0.90;;;12.00;81.30;;;;;;5051969;28;20434;-71
2024/03/29 02:19:25;;;;;;;4.87;1.67;;;11.90;82.60;;;;;;5056330;28;20534;-69
2024/03/29 02:21:54;;;;;;;5.10;0.90;;;11.70;84.30;;;;;;5059285;28;20044;-67
2024/03/29 02:24:20;;;;;;;4.55;1.10;;;11.90;82.80;;;;;;5057233;28;20049;-72
2024/03/29 02:26:46;;;;;;;3.05;0.98;;;11.90;83.00;;;;;;5056313;28;20025;-71
2024/03/29 02:29:12;;;;;;;3.25;0.80;;;12.00;83.60;;;;;;5055862;28;20056;-72
2024/03/29 02:31:38;;;;;;;2.87;0.83;;;11.90;83.40;;;;;;5053870;28;20108;-69
2024/03/29 02:34:04;;;;;;;4.57;1.20;;;11.90;84.90;;;;;;5055548;28;20442;-69
2024/03/29 02:36:29;;;;;;;6.07;1.00;;;11.70;84.30;;;;;;5058532;28;20360;-71
2024/03/29 02:38:55;;;;;;;5.70;0.93;;;11.60;84.80;;;;;;5065577;28;20035;-65
2024/03/29 02:41:22;;;;;;;2.60;1.67;;;11.90;83.90;;;;;;5056432;28;20274;-64
2024/03/29 02:43:47;;;;;;;4.78;1.00;;;12.30;82.00;;;;;;5056876;28;20117;-64
2024/03/29 02:46:13;;;;;;;5.33;1.13;;;12.40;80.80;;;;;;5057143;28;20091;-64
2024/03/29 02:48:39;;;;;;;1.53;0.80;;;12.40;81.40;;;;;;5056581;28;20033;-64
2024/03/29 02:51:04;;;;;;;4.83;1.27;;;12.40;81.90;;;;;;5056523;28;20664;-64
2024/03/29 02:53:30;;;;;;;3.67;1.43;;;12.80;81.30;;;;;;5059965;28;20032;-64
2024/03/29 02:55:55;;;;;;;2.87;1.10;;;12.50;82.90;;;;;;5055480;28;20024;-64
2024/03/29 02:58:21;;;;;;;6.83;1.03;;;12.70;81.20;;;;;;5055401;28;20028;-64
2024/03/29 03:00:47;;;;;;;9.87;1.30;;;12.50;82.60;;;;;;5065425;28;20035;-64
2024/03/29 03:03:15;;;;;;;7.37;0.80;;;12.30;84.40;;;;;;5059122;28;20475;-67
2024/03/29 03:05:41;;;;;;;3.13;0.93;;;12.40;83.40;;;;;;5055094;28;20104;-64
2024/03/29 03:11:00;;;;;;;2.58;1.10;;;12.50;83.70;;;;;;5054414;28;20790;-67
2024/03/29 03:13:28;;;;;;;2.83;0.80;;;12.30;84.90;;;;;;5053944;28;20724;-67
2024/03/29 03:15:54;;;;;;;1.77;0.80;;;12.40;84.40;;;;;;5057265;28;20111;-67
2024/03/29 03:18:19;;;;;;;1.65;0.98;;;12.30;85.70;;;;;;5054337;28;20115;-69
2024/03/29 03:20:55;;;;;;;2.50;0.73;;;12.60;84.10;;;;;;5054276;28;20402;-69
2024/03/29 03:23:21;;;;;;;3.45;1.05;;;12.40;84.60;;;;;;5051557;28;20100;-68
2024/03/29 03:25:58;;;;;;;2.63;0.60;;;12.30;85.20;;;;;;5053918;28;20108;-67
2024/03/29 03:28:24;;;;;;;5.95;0.80;;;12.20;86.30;;;;;;5054438;28;20325;-69
2024/03/29 03:30:53;;;;;;;4.85;0.88;;;12.00;88.10;;;;;;5056453;28;20036;-66
2024/03/29 03:33:19;;;;;;;2.35;0.50;;;12.10;88.70;;;;;;5056234;28;20040;-66
2024/03/29 03:35:45;;;;;;;6.45;1.08;;;12.40;86.70;;;;;;5045649;28;20052;-68
2024/03/29 03:38:12;;;;;;;3.92;1.00;;;12.30;87.40;;;;;;5055331;28;20068;-67
2024/03/29 03:40:38;;;;;;;1.52;0.70;;;12.30;87.30;;;;;;5056127;28;20032;-67
2024/03/29 03:43:05;;;;;;;1.52;0.50;;;12.30;87.30;;;;;;5054640;28;20032;-65
2024/03/29 03:45:49;;;;;;;3.28;0.63;;;12.40;88.20;;;;;;5054066;28;20039;-70
2024/03/29 03:48:15;;;;;;;3.28;0.70;;;12.60;87.80;;;;;;5053233;28;20526;-67
2024/03/29 03:50:41;;;;;;;4.50;1.00;;;12.80;88.10;;;;;;5053591;28;20044;-68
2024/03/29 03:53:07;;;;;;;4.90;0.70;;;12.80;88.10;;;;;;5054710;28;20041;-69
2024/03/29 03:55:37;;;;;;;4.68;1.60;;;12.90;88.10;;;;;;5054184;28;20033;-67
2024/03/29 03:58:03;;;;;;;5.40;0.90;;;12.90;88.40;;;;;;5055250;28;20108;-70
2024/03/29 04:00:29;;;;;;;6.95;1.05;;;12.90;89.10;;;;;;5055690;28;20890;-65
2024/03/29 04:02:56;;;;;;;4.37;0.77;;;12.80;88.80;;;;;;5053320;28;20043;-64
2024/03/29 04:05:22;;;;;;;6.32;1.00;;;13.00;90.00;;;;;;5053007;28;20369;-64
2024/03/29 04:07:48;;;;;;;2.88;0.80;;;12.90;89.30;;;;;;5053337;28;20040;-64
2024/03/29 04:10:14;;;;;;;2.78;0.73;;;13.00;90.30;;;;;;5049145;28;20025;-64
2024/03/29 04:12:40;;;;;;;1.77;0.75;;;13.10;89.10;;;;;;5054011;28;20036;-65
2024/03/29 04:15:06;;;;;;;4.00;1.80;;;12.90;90.20;;;;;;5058190;28;20511;-71
2024/03/29 04:17:32;;;;;;;4.28;1.25;;;12.80;90.70;;;;;;5051945;28;20116;-67
2024/03/29 04:19:58;;;;;;;2.83;0.85;;;12.90;90.70;;;;;;5054037;28;20044;-65
2024/03/29 04:22:24;;;;;;;5.65;0.68;;;13.00;90.60;;;;;;5054070;28;20033;-65
2024/03/29 04:24:50;;;;;;;6.50;0.83;;;12.90;90.80;;;;;;5056804;28;20083;-64
2024/03/29 04:27:16;;;;;;;5.13;1.05;;;13.00;90.80;;;;;;5053458;28;20041;-65
2024/03/29 04:29:42;;;;;;;4.30;0.80;;;13.00;90.90;;;;;;5057767;28;20037;-65
2024/03/29 04:32:08;;;;;;;6.65;1.17;;;13.00;90.90;;;;;;5062839;28;20037;-67
2024/03/29 04:34:34;;;;;;;4.13;0.98;;;12.90;91.50;;;;;;5057758;28;20543;-64
2024/03/29 04:36:59;;;;;;;6.67;0.87;;;12.90;91.80;;;;;;5053161;28;20075;-64
2024/03/29 04:39:25;;;;;;;3.97;0.80;;;13.00;91.30;;;;;;5055892;28;20351;-64
2024/03/29 04:41:50;;;;;;;3.50;1.13;;;13.00;91.70;;;;;;5056667;28;20033;-65
2024/03/29 04:44:24;;;;;;;7.17;1.10;;;12.80;92.20;;;;;;5058124;28;20033;-65
2024/03/29 04:46:50;;;;;;;7.80;1.42;;;12.80;93.00;;;;;;5056615;28;20028;-65
2024/03/29 04:49:22;;;;;;;3.15;0.85;;;12.80;92.70;;;;;;5057832;28;20037;-64
2024/03/29 04:51:48;;;;;;;5.60;0.80;;;12.70;92.70;;;;;;5066197;28;20062;-64
2024/03/29 04:54:15;;;;;;;4.57;1.30;;;12.60;93.70;;;;;;5061235;28;20036;-64
2024/03/29 04:56:41;;;;;;;5.78;1.27;;;12.60;93.60;;;;;;5059301;28;20067;-65
2024/03/29 04:59:09;;;;;;;2.83;1.02;;;12.70;93.50;;;;;;5056931;28;20601;-64
2024/03/29 05:01:35;;;;;;;3.90;1.10;;;12.90;92.90;;;;;;5052881;28;20123;-65
2024/03/29 05:04:01;;;;;;;6.68;1.63;;;12.70;93.50;;;;;;5056842;28;20108;-65
2024/03/29 05:06:27;;;;;;;5.67;0.97;;;12.70;93.60;;;;;;5057818;28;20041;-64
2024/03/29 05:08:52;;;;;;;4.17;1.00;;;12.80;93.50;;;;;;5058484;28;20472;-65
2024/03/29 05:11:19;;;;;;;2.60;1.17;;;12.60;94.00;;;;;;5053097;28;20044;-66
2024/03/29 05:13:44;;;;;;;10.07;1.77;;;12.60;94.80;;;;;;5056330;28;20052;-66
2024/03/29 05:16:10;;;;;;;4.40;1.40;;;12.90;94.30;;;;;;5057764;28;20041;-66
2024/03/29 05:18:36;;;;;;;5.80;1.03;;;12.90;94.20;;;;;;5059265;28;20749;-67
2024/03/29 05:21:02;;;;;;;5.57;1.42;;;13.00;94.20;;;;;;5057382;28;20025;-69
2024/03/29 05:23:27;;;;;;;4.45;1.05;;;13.00;94.10;;;;;;5058532;28;20559;-66
2024/03/29 05:25:53;;;;;;;8.17;1.50;;;12.90;94.80;;;;;;5058241;28;20044;-66
2024/03/29 05:28:19;;;;;;;7.50;2.10;;;12.90;95.50;;;;;;5058347;28;20032;-69
2024/03/29 05:30:45;;;;;;;8.15;1.98;;;13.20;94.80;;;;;;5058295;28;20442;-70
2024/03/29 05:33:10;;;;;;;6.03;1.03;;;13.20;95.00;;;;;;5048283;28;20053;-67
2024/03/29 05:35:36;;;;;;;8.87;1.60;;;13.30;94.40;;;;;;5056901;28;20033;-65
2024/03/29 05:38:02;;;;;;;9.70;1.33;;;13.30;94.80;;;;;;5058035;28;20039;-70
2024/03/29 05:40:28;;;;;;;11.38;1.40;;;13.20;95.10;;;;;;5049253;28;20024;-70
2024/03/29 05:42:54;;;;;;;8.75;1.92;;;13.40;95.10;;;;;;5057691;28;20040;-71
2024/03/29 05:45:26;;;;;;;7.63;1.85;;;13.50;95.30;;;;;;5056429;28;20037;-69
2024/03/29 05:47:53;;;;;;;8.18;2.13;;;13.30;95.20;;;;;;5056073;28;20060;-70
2024/03/29 05:50:19;;;;;;;7.30;1.20;;;13.50;94.80;;;;;;5060488;28;20139;-71
2024/03/29 05:52:45;;;;;;;3.57;1.00;;;13.60;94.50;;;;;;5058708;28;20044;-65
2024/03/29 05:55:10;;;;;;;7.27;1.13;;;13.70;93.90;;;;;;5058189;28;20066;-66
2024/03/29 05:57:40;;;;;;;7.33;1.53;;;13.50;95.30;;;;;;5057116;28;20145;-67
2024/03/29 06:00:07;;;;;;;8.70;1.80;;;13.60;94.50;;;;;;5049967;28;20037;-67
2024/03/29 06:02:32;;;;;;;;;;;13.70;94.30;;;;;;5058711;28;20764;-65
2024/03/29 06:04:58;;;;;;;8.10;1.30;;;13.80;94.20;;;;;;5055577;28;19913;-65
2024/03/29 06:07:24;;;;;;;9.13;1.93;;;13.90;94.00;;;;;;5056472;28;20029;-65
2024/03/29 06:09:49;;;;;;;13.67;1.83;;;13.70;94.80;;;;;;5058461;28;20373;-65
2024/03/29 06:12:15;;;;;;;12.50;1.90;;;14.20;92.90;;;;;;5058076;28;20060;-66
2024/03/29 06:17:25;;;;;;;9.32;1.40;;;14.00;93.30;;;;;;5056517;28;20058;-66
2024/03/29 06:20:00;;;;;;;10.43;2.70;;;14.20;92.80;;;;;;5055953;28;20033;-65
2024/03/29 06:22:29;;;;;;;11.00;2.35;;;14.20;93.00;;;;;;5054565;28;20031;-64
2024/03/29 06:24:58;;;;;;;14.80;3.03;;;14.10;93.50;;;;;;5053942;28;20024;-65
2024/03/29 06:27:25;;;;;;;11.07;1.77;;;14.40;92.70;;;;;;5057591;28;20029;-67
2024/03/29 06:29:51;;;;;;;10.10;1.55;;;14.40;92.50;;;;;;5056267;28;20025;-65
2024/03/29 06:32:18;;;;;;;13.07;1.63;;;14.50;92.40;;;;;;5049243;28;20064;-64
2024/03/29 06:34:47;;;;;;;7.45;1.40;;;14.70;92.20;;;;;;5058741;28;20590;-66
2024/03/29 06:37:13;;;;;;;6.80;1.40;;;14.80;91.50;;;;;;5057933;28;20031;-66
2024/03/29 06:39:38;;;;;;;7.10;1.38;;;14.80;91.50;;;;;;5055060;28;20061;-64
2024/03/29 06:42:07;;;;;;;12.07;1.70;;;14.80;92.00;;;;;;5058089;28;20060;-65
2024/03/29 06:44:33;;;;;;;10.07;1.30;;;14.90;92.00;;;;;;5056869;28;20051;-65
2024/03/29 06:46:58;;;;;;;6.65;1.20;;;14.70;92.00;;;;;;5050751;28;20029;-65
2024/03/29 06:49:24;;;;;;;8.00;1.97;;;14.90;91.80;;;;;;5056355;28;20043;-66
2024/03/29 06:51:49;;;;;;;9.23;1.87;;;15.00;91.20;;;;;;5056295;28;20108;-66
2024/03/29 06:54:15;;;;;;;10.03;1.40;;;14.90;91.70;;;;;;5059081;28;20037;-66
2024/03/29 06:56:41;;;;;;;6.90;1.57;;;15.30;90.70;;;;;;5054047;28;20507;-65
2024/03/29 06:59:06;;;;;;;9.73;1.75;;;15.40;90.60;;;;;;5056787;28;20047;-66
2024/03/29 07:01:32;;;;;;;11.47;2.23;;;15.30;90.70;;;;;;5057324;28;20029;-67
2024/03/29 07:03:57;;;;;;;6.03;1.20;;;15.30;91.00;;;;;;5050798;28;20052;-66
2024/03/29 07:06:23;;;;;;;11.50;1.97;;;15.50;90.80;;;;;;5049676;28;20439;-66
2024/03/29 07:08:48;;;;;;;11.17;2.47;;;15.30;91.20;;;;;;5059367;28;20059;-65
2024/03/29 07:11:14;;;;;;;10.33;1.57;;;15.40;91.70;;;;;;5056332;28;20121;-67
2024/03/29 07:13:40;;;;;;;14.33;2.00;;;15.50;91.10;;;;;;5056829;28;20052;-66
2024/03/29 07:16:06;;;;;;;8.53;2.20;;;15.60;91.30;;;;;;5054709;28;20094;-66
2024/03/29 07:18:32;;;;;;;10.57;1.80;;;15.60;91.10;;;;;;5054636;28;20567;-66
2024/03/29 07:20:58;;;;;;;10.87;2.03;;;15.60;91.40;;;;;;5053804;28;20440;-68
2024/03/29 07:23:23;;;;;;;12.30;2.03;;;15.60;91.90;;;;;;5054841;28;20055;-69
2024/03/29 07:26:03;;;;;;;11.07;1.83;;;15.60;92.00;;;;;;5052162;28;20060;-70
2024/03/29 07:28:29;;;;;;;7.10;1.98;;;15.70;91.30;;;;;;5060758;28;20029;-68
2024/03/29 07:30:55;;;;;;;8.13;1.70;;;15.80;91.30;;;;;;5050535;28;20028;-66
2024/03/29 07:33:25;;;;;;;12.93;2.07;;;15.80;91.10;;;;;;5052503;28;20060;-66
2024/03/29 07:35:52;;;;;;;8.30;2.10;;;15.90;91.00;;;;;;5063056;28;20401;-68
2024/03/29 07:38:17;;;;;;;8.30;2.28;;;16.00;90.90;;;;;;5055109;28;20032;-67
2024/03/29 07:40:44;;;;;;;15.00;2.27;;;16.20;90.20;;;;;;5047092;28;20086;-67
2024/03/29 07:43:09;;;;;;;9.05;1.90;;;16.30;90.20;;;;;;5055328;28;20036;-69
2024/03/29 07:45:35;;;;;;;6.00;1.67;;;16.60;88.90;;;;;;5055338;28;20037;-67
2024/03/29 07:48:01;;;;;;;9.80;1.50;;;16.70;88.20;;;;;;5053833;28;20037;-67
2024/03/29 07:50:26;;;;;;;9.57;1.80;;;16.90;87.60;;;;;;5055180;28;20036;-69
2024/03/29 07:52:52;;;;;;;7.70;1.70;;;16.90;88.60;;;;;;5061320;28;20036;-70
2024/03/29 07:55:17;;;;;;;13.40;1.50;;;16.90;87.10;;;;;;5063444;28;20063;-67
2024/03/29 07:57:43;;;;;;;5.10;1.37;;;16.90;86.50;;;;;;5060587;28;20037;-68
2024/03/29 08:00:10;;;;;;;4.83;1.33;;;17.10;87.20;;;;;;5062197;28;20067;-67
2024/03/29 08:02:35;;;;;;;7.85;1.98;;;17.20;86.30;;;;;;5060306;28;20493;-69
2024/03/29 08:05:01;;;;;;;9.60;1.67;;;17.10;86.20;;;;;;5059119;28;20035;-69
2024/03/29 08:07:27;;;;;;;8.37;2.37;;;16.90;86.80;;;;;;5060698;28;20033;-67
2024/03/29 08:09:52;;;;;;;6.43;1.70;;;16.80;86.50;;;;;;5052233;28;20024;-67
2024/03/29 08:12:18;;;;;;;7.97;1.80;;;16.80;88.70;;;;;;5053423;28;20029;-67
2024/03/29 08:14:44;;;;;;;5.33;2.10;;;16.80;87.10;;;;;;5047774;28;20068;-67
2024/03/29 08:17:09;;;;;;;9.82;2.05;;;16.90;86.30;;;;;;5049518;28;20039;-67
2024/03/29 08:19:36;;;;;;;5.80;1.50;;;17.00;85.50;;;;;;5053711;28;20033;-67
2024/03/29 08:22:02;;;;;;;8.30;2.00;;;17.00;86.70;;;;;;5056603;28;20032;-68
2024/03/29 08:24:28;;;;;;;7.35;1.45;;;17.00;86.20;;;;;;5055380;28;20832;-69
2024/03/29 08:26:53;;;;;;;8.77;1.58;;;17.10;86.50;;;;;;5056734;28;20116;-69
2024/03/29 08:29:19;;;;;;;8.27;1.43;;;17.20;85.40;;;;;;5056951;28;20107;-69
2024/03/29 08:31:45;;;;;;;9.57;2.47;;;17.30;86.50;;;;;;5060524;28;20819;-68
2024/03/29 08:34:13;;;;;;;5.13;1.23;;;17.40;85.60;;;;;;5049284;28;20021;-66
2024/03/29 08:36:39;;;;;;;4.78;1.65;;;17.70;82.20;;;;;;5058240;28;20662;-67
2024/03/29 08:39:04;;;;;;;8.70;1.40;;;17.80;82.20;;;;;;5059084;28;20036;-69
2024/03/29 08:41:30;;;;;;;8.13;1.80;;;17.90;80.30;;;;;;5058600;28;20037;-72
2024/03/29 08:43:56;;;;;;;4.57;1.45;;;18.00;80.90;;;;;;5053315;28;20029;-72
2024/03/29 08:46:21;;;;;;;7.07;1.40;;;18.20;80.40;;;;;;5053687;28;20037;-73
2024/03/29 08:48:47;;;;;;;8.30;1.83;;;18.50;78.70;;;;;;5055867;28;20032;-73
2024/03/29 08:51:14;;;;;;;6.43;1.60;;;18.90;76.80;;;;;;5055364;28;20037;-72
2024/03/29 08:53:41;;;;;;;2.72;1.33;;;19.30;78.20;;;;;;5056410;28;20082;-73
2024/03/29 08:56:06;;;;;;;7.43;1.47;;;19.30;77.40;;;;;;5052479;28;20024;-72
2024/03/29 08:58:32;;;;;;;7.20;1.20;;;18.90;77.80;;;;;;5047258;28;20211;-72
2024/03/29 09:00:58;;;;;;;6.50;1.73;;;18.80;76.90;;;;;;5053783;28;20022;-71
2024/03/29 09:03:24;;;;;;;5.03;1.40;;;18.90;75.90;;;;;;5055712;28;20033;-68
2024/03/29 09:05:51;;;;;;;3.75;1.20;;;19.00;76.50;;;;;;5053816;28;20384;-68
2024/03/29 09:08:19;;;;;;;5.97;1.13;;;19.70;77.60;;;;;;5052228;28;20566;-68
2024/03/29 09:10:45;;;;;;;10.07;1.92;;;20.40;74.20;;;;;;5055663;28;20036;-68
2024/03/29 09:13:11;;;;;;;5.00;1.70;;;20.20;73.50;;;;;;5055075;28;20400;-68
2024/03/29 09:15:37;;;;;;;8.33;1.90;;;20.30;73.40;;;;;;5057163;28;20527;-67
2024/03/29 09:18:10;;;;;;;;;;;20.40;73.40;;;;;;5057207;28;20849;-68
2024/03/29 09:20:36;;;;;;;14.98;2.03;;;20.40;71.50;;;;;;5062822;28;19923;-69
2024/03/29 09:23:03;;;;;;;3.28;1.20;;;20.10;72.00;;;;;;5059331;28;20024;-68
2024/03/29 09:25:29;;;;;;;2.42;1.02;;;19.90;72.50;;;;;;5058310;28;20024;-67
2024/03/29 09:27:55;;;;;;;7.80;1.27;;;19.80;73.40;;;;;;5055954;28;20128;-68
2024/03/29 09:30:22;;;;;;;4.83;1.40;;;19.90;71.30;;;;;;5057684;28;20093;-68
2024/03/29 09:32:49;;;;;;;;;;;19.60;69.20;;;;;;5053247;28;20693;-67
2024/03/29 09:35:15;;;;;;;8.40;1.30;;;19.80;70.40;;;;;;5055502;28;19912;-67
2024/03/29 09:37:42;;;;;;;9.80;1.33;;;19.80;70.60;;;;;;5056128;28;20570;-68
2024/03/29 09:40:10;;;;;;;7.80;1.52;;;19.70;69.00;;;;;;5062017;28;20515;-68
2024/03/29 09:42:38;;;;;;;9.07;1.70;;;19.40;69.30;;;;;;5060500;28;20046;-70
2024/03/29 09:45:05;;;;;;;5.55;1.25;;;19.40;70.00;;;;;;5057760;28;20074;-67
2024/03/29 09:47:32;;;;;;;6.72;1.55;;;19.40;67.00;;;;;;5057770;28;20041;-69
2024/03/29 09:50:03;;;;;;;6.07;1.80;;;19.50;67.30;;;;;;5058413;28;20025;-71
2024/03/29 09:52:30;;;;;;;9.02;1.50;;;19.40;67.20;;;;;;5049740;28;20405;-67
2024/03/29 09:54:56;;;;;;;6.57;1.92;;;19.30;67.90;;;;;;5057883;28;20017;-69
2024/03/29 09:57:24;;;;;;;4.68;1.48;;;19.50;67.70;;;;;;5051255;28;20089;-71
2024/03/29 09:59:49;;;;;;;13.02;1.33;;;19.40;66.30;;;;;;5055139;28;20139;-68
2024/03/29 10:02:19;;;;;;;14.52;2.78;;;19.30;67.30;;;;;;5050251;28;20524;-70
2024/03/29 10:04:47;;;;;;;6.93;1.95;;;19.30;67.10;;;;;;5056384;28;20052;-67
2024/03/29 10:07:15;;;;;;;9.02;1.60;;;19.30;65.00;;;;;;5058453;28;20174;-68
2024/03/29 10:09:42;;;;;;;14.88;2.53;;;19.30;65.40;;;;;;5058038;28;20523;-74
2024/03/29 10:12:07;;;;;;;11.68;2.05;;;19.20;65.10;;;;;;5055173;28;20090;-69
2024/03/29 10:14:49;;;;;;;13.57;2.07;;;19.20;68.20;;;;;;5060820;28;20036;-71
2024/03/29 10:17:16;;;;;;;15.02;1.70;;;19.20;65.80;;;;;;5060465;28;20067;-71
2024/03/29 10:19:42;;;;;;;10.98;1.70;;;19.10;66.00;;;;;;5062679;28;20029;-71
2024/03/29 10:22:07;;;;;;;13.23;2.50;;;19.10;64.80;;;;;;5057844;28;20028;-68
2024/03/29 10:24:33;;;;;;;12.70;1.80;;;19.10;67.60;;;;;;5063536;28;20074;-72
2024/03/29 10:26:59;;;;;;;13.68;1.92;;;19.20;64.80;;;;;;5049041;28;20031;-73
2024/03/29 10:29:31;;;;;;;10.43;1.70;;;19.20;66.60;;;;;;5057710;28;20103;-72
2024/03/29 10:31:57;;;;;;;22.15;2.30;;;19.30;65.90;;;;;;5055014;28;20040;-73
2024/03/29 10:34:25;;;;;;;16.93;3.57;;;19.30;66.50;;;;;;5051749;28;20033;-72
2024/03/29 10:36:51;;;;;;;13.25;3.08;;;19.20;66.30;;;;;;5056718;28;20504;-69
2024/03/29 10:39:17;;;;;;;19.25;3.88;;;19.20;67.40;;;;;;5054595;28;20059;-68
2024/03/29 10:41:46;;;;;;;10.48;2.22;;;19.20;67.20;;;;;;5061412;28;20420;-68
2024/03/29 10:44:14;;;;;;;15.32;1.98;;;19.10;68.20;;;;;;5056894;28;20059;-68
2024/03/29 10:46:41;;;;;;;23.20;3.13;;;19.10;67.30;;;;;;5057709;28;20028;-69
2024/03/29 10:49:11;;;;;;;16.63;2.63;;;19.00;66.10;;;;;;5059520;28;20054;-69
2024/03/29 10:51:41;;;;;;;11.82;1.98;;;19.00;66.30;;;;;;5054712;28;20502;-67
2024/03/29 10:54:12;;;;;;;19.05;2.50;;;19.00;67.10;;;;;;5056089;28;20037;-69
2024/03/29 10:56:41;;;;;;;15.98;3.22;;;18.90;68.20;;;;;;5054369;28;20489;-68
2024/03/29 10:59:22;;;;;;;24.40;2.78;;;19.00;66.70;;;;;;5052493;28;20463;-68
2024/03/29 11:01:56;;;;;;;18.10;2.40;;;19.00;66.70;;;;;;5052911;28;20032;-67
2024/03/29 11:04:33;;;;;;;15.13;2.30;;;19.20;66.70;;;;;;5056806;28;20017;-69
2024/03/29 11:07:05;;;;;;;30.98;2.92;;;19.10;66.60;;;;;;5056876;28;20032;-68
2024/03/29 11:09:33;;;;;;;16.80;2.20;;;19.10;65.10;;;;;;5056272;28;20028;-68
2024/03/29 11:12:01;;;;;;;18.45;2.47;;;19.10;65.70;;;;;;5054819;28;20029;-67
2024/03/29 11:14:36;;;;;;;26.33;2.60;;;19.20;65.50;;;;;;5059101;28;20040;-69
2024/03/29 11:17:03;;;;;;;25.40;3.13;;;19.40;65.40;;;;;;5054698;28;20021;-69
2024/03/29 11:19:30;;;;;;;17.95;2.83;;;19.60;65.70;;;;;;5052849;28;20039;-66
2024/03/29 11:21:56;;;;;;;25.92;3.15;;;19.70;66.70;;;;;;5058538;28;20024;-66
2024/03/29 11:24:24;;;;;;;19.88;5.32;;;19.90;63.90;;;;;;5055428;28;20032;-68
2024/03/29 11:26:49;;;;;;;20.45;3.45;;;20.10;66.40;;;;;;5054258;28;20038;-69
2024/03/29 11:29:22;;;;;;;19.47;2.37;;;20.40;65.40;;;;;;5054490;28;20036;-67
2024/03/29 11:31:56;;;;;;;13.65;2.50;;;20.40;62.60;;;;;;5050862;28;20029;-66
2024/03/29 11:34:21;;;;;;;22.25;2.60;;;20.50;65.90;;;;;;5056097;28;20033;-67
2024/03/29 11:36:47;;;;;;;12.37;2.03;;;20.40;62.50;;;;;;5053567;28;20479;-66
2024/03/29 11:39:23;;;;;;;23.67;2.93;;;20.40;61.70;;;;;;5055488;28;20461;-65
2024/03/29 11:41:49;;;;;;;21.83;2.60;;;20.80;62.10;;;;;;5055725;28;20415;-67
2024/03/29 11:44:15;;;;;;;26.88;4.53;;;21.10;64.90;;;;;;5050143;28;20025;-67
2024/03/29 11:46:42;;;;;;;24.95;3.10;;;21.00;62.30;;;;;;5053438;28;20484;-66
2024/03/29 11:49:08;;;;;;;23.92;3.10;;;20.60;61.90;;;;;;5054350;28;20031;-65
2024/03/29 11:51:33;;;;;;;17.60;3.17;;;20.70;62.50;;;;;;5052124;28;20037;-66
2024/03/29 11:54:00;;;;;;;21.07;3.60;;;20.90;63.60;;;;;;5055210;28;20402;-70
2024/03/29 11:56:26;;;;;;;17.77;2.58;;;21.00;65.20;;;;;;5056219;28;20059;-71
2024/03/29 11:58:53;;;;;;;28.40;3.57;;;21.10;61.70;;;;;;5052957;28;20110;-70
2024/03/29 12:01:18;;;;;;;26.38;3.58;;;20.90;61.60;;;;;;5053708;28;20032;-71
2024/03/29 12:03:44;;;;;;;23.65;4.15;;;20.90;63.20;;;;;;5048608;28;20033;-70
2024/03/29 12:06:10;;;;;;;26.27;3.63;;;20.90;60.70;;;;;;5048536;28;20035;-69
2024/03/29 12:08:39;;;;;;;29.88;3.55;;;20.90;62.80;;;;;;5052115;28;20040;-72
2024/03/29 12:11:05;;;;;;;17.88;3.28;;;20.80;61.70;;;;;;5060711;28;20104;-66
2024/03/29 12:13:31;;;;;;;21.30;3.65;;;20.80;61.40;;;;;;5059972;28;20123;-70
2024/03/29 12:15:57;;;;;;;33.50;3.92;;;20.80;60.70;;;;;;5050657;28;20779;-67
2024/03/29 12:18:25;;;;;;;49.45;4.07;;;20.90;61.30;;;;;;5057545;28;20669;-66
2024/03/29 12:20:52;;;;;;;40.33;5.45;;;20.70;61.10;;;;;;5057339;28;20032;-66
2024/03/29 12:23:19;;;;;;;34.58;4.18;;;20.80;59.70;;;;;;5054646;28;20071;-70
2024/03/29 12:25:46;;;;;;;26.92;3.08;;;20.80;61.10;;;;;;5054700;28;20024;-66
2024/03/29 12:28:13;;;;;;;35.45;4.53;;;20.90;60.50;;;;;;5059698;28;20031;-66
2024/03/29 12:30:42;;;;;;;35.55;4.88;;;21.00;62.40;;;;;;5058024;28;20043;-69
2024/03/29 12:33:15;;;;;;;27.80;5.03;;;21.00;59.60;;;;;;5057467;28;20056;-67
2024/03/29 12:35:44;;;;;;;31.13;3.63;;;21.00;60.40;;;;;;5056316;28;20062;-68
2024/03/29 12:38:13;;;;;;;36.75;4.63;;;21.20;63.80;;;;;;5053484;28;20829;-71
2024/03/29 12:40:50;;;;;;;35.33;4.07;;;21.20;59.50;;;;;;5049089;28;20033;-70
2024/03/29 12:43:20;;;;;;;20.63;3.30;;;21.20;60.80;;;;;;5051660;28;20492;-70
2024/03/29 12:45:46;;;;;;;32.25;4.47;;;21.40;61.30;;;;;;5063665;28;20559;-70
2024/03/29 12:48:20;;;;;;;31.42;3.85;;;21.50;60.20;;;;;;5060532;28;20055;-71